createdAt,value
2022-09-12T00:02:42.316Z,15.03
2022-09-12T00:05:46.257Z,15.01
2022-09-12T00:08:49.216Z,15.00
2022-09-12T00:11:53.278Z,15.03
2022-09-12T00:14:55.971Z,15.02
2022-09-12T00:17:58.632Z,15.02
2022-09-12T00:21:04.661Z,15.02
2022-09-12T00:24:07.802Z,15.00
2022-09-12T00:27:11.850Z,15.02
2022-09-12T00:30:15.049Z,15.06
2022-09-12T00:33:19.320Z,15.11
2022-09-12T00:36:25.016Z,15.11
2022-09-12T00:39:27.716Z,15.05
2022-09-12T00:42:31.789Z,14.98
2022-09-12T00:45:34.638Z,15.09
2022-09-12T00:48:43.185Z,15.05
2022-09-12T00:51:51.082Z,15.04
2022-09-12T00:54:58.783Z,14.82
2022-09-12T00:58:08.439Z,14.91
2022-09-12T01:01:11.235Z,14.93
2022-09-12T01:04:15.127Z,14.92
2022-09-12T01:07:17.892Z,14.84
2022-09-12T01:10:21.549Z,14.82
2022-09-12T01:13:25.735Z,14.78
2022-09-12T01:16:29.100Z,14.76
2022-09-12T01:20:01.475Z,14.71
2022-09-12T01:23:31.769Z,14.67
2022-09-12T01:27:00.087Z,14.69
2022-09-12T01:30:24.865Z,14.77
2022-09-12T01:33:42.602Z,14.80
2022-09-12T01:36:53.331Z,14.83
2022-09-12T01:40:04.914Z,14.85
2022-09-12T01:43:19.283Z,14.89
2022-09-12T01:46:25.786Z,14.93
2022-09-12T01:49:37.453Z,14.90
2022-09-12T01:52:46.036Z,14.89
2022-09-12T01:55:53.663Z,14.92
2022-09-12T01:59:02.563Z,14.80
2022-09-12T02:02:10.493Z,14.74
2022-09-12T02:05:20.814Z,14.67
2022-09-12T02:08:31.530Z,14.69
2022-09-12T02:11:38.702Z,14.53
2022-09-12T02:14:46.228Z,14.65
2022-09-12T02:17:51.909Z,14.76
2022-09-12T02:20:57.939Z,14.81
2022-09-12T02:24:03.788Z,14.80
2022-09-12T02:27:11.894Z,14.79
2022-09-12T02:30:16.602Z,14.79
2022-09-12T02:33:26.715Z,14.75
2022-09-12T02:36:40.386Z,14.73
2022-09-12T02:39:45.519Z,14.75
2022-09-12T02:42:48.495Z,14.75
2022-09-12T02:45:51.811Z,14.78
2022-09-12T02:48:55.871Z,14.80
2022-09-12T02:52:01.018Z,14.82
2022-09-12T02:55:06.973Z,14.82
2022-09-12T02:58:14.138Z,14.82
2022-09-12T03:01:37.270Z,14.82
2022-09-12T03:05:02.847Z,14.76
2022-09-12T03:08:37.553Z,14.73
2022-09-12T03:11:57.243Z,14.68
2022-09-12T03:15:13.859Z,14.66
2022-09-12T03:18:27.368Z,14.62
2022-09-12T03:21:35.014Z,14.62
2022-09-12T03:24:47.865Z,14.59
2022-09-12T03:27:57.492Z,14.54
2022-09-12T03:31:00.288Z,14.57
2022-09-12T03:34:03.334Z,14.62
2022-09-12T03:37:06.703Z,14.54
2022-09-12T03:40:12.894Z,14.41
2022-09-12T03:43:16.405Z,14.33
2022-09-12T03:46:19.946Z,14.33
2022-09-12T03:49:23.324Z,14.20
2022-09-12T03:52:29.606Z,14.22
2022-09-12T03:55:34.121Z,14.22
2022-09-12T03:58:38.054Z,14.06
2022-09-12T04:01:41.982Z,13.98
2022-09-12T04:04:49.161Z,13.97
2022-09-12T04:07:54.638Z,13.99
2022-09-12T04:11:05.571Z,14.01
2022-09-12T04:14:09.166Z,14.14
2022-09-12T04:17:12.821Z,14.21
2022-09-12T04:20:15.976Z,14.28
2022-09-12T04:23:19.559Z,14.32
2022-09-12T04:26:24.273Z,14.33
2022-09-12T04:29:27.943Z,14.31
2022-09-12T04:32:31.854Z,14.22
2022-09-12T04:35:36.307Z,14.19
2022-09-12T04:38:39.742Z,14.17
2022-09-12T04:41:43.830Z,13.98
2022-09-12T04:44:46.545Z,13.83
2022-09-12T04:47:49.737Z,13.79
2022-09-12T04:50:52.710Z,13.87
2022-09-12T04:53:58.451Z,14.03
2022-09-12T04:57:02.608Z,14.03
2022-09-12T05:00:07.599Z,13.93
2022-09-12T05:03:10.280Z,13.92
2022-09-12T05:06:15.425Z,13.86
2022-09-12T05:09:18.101Z,13.89
2022-09-12T05:12:23.007Z,13.90
2022-09-12T05:15:38.835Z,13.86
2022-09-12T05:18:48.564Z,13.89
2022-09-12T05:21:58.464Z,13.89
2022-09-12T05:25:08.582Z,13.98
2022-09-12T05:28:14.750Z,13.88
2022-09-12T05:31:20.231Z,13.92
2022-09-12T05:34:28.357Z,13.82
2022-09-12T05:37:31.479Z,13.89
2022-09-12T05:40:35.896Z,13.80
2022-09-12T05:43:41.807Z,13.91
2022-09-12T05:46:48.677Z,13.82
2022-09-12T05:49:52.663Z,13.87
2022-09-12T05:52:56.255Z,13.86
2022-09-12T05:56:07.000Z,13.88
2022-09-12T05:59:13.170Z,13.98
2022-09-12T06:02:16.084Z,13.85
2022-09-12T06:05:18.850Z,13.88
2022-09-12T06:08:21.735Z,13.92
2022-09-12T06:11:28.959Z,13.83
2022-09-12T06:14:33.486Z,13.88
2022-09-12T06:17:36.275Z,13.91
2022-09-12T06:20:38.972Z,13.93
2022-09-12T06:23:42.146Z,13.93
2022-09-12T06:26:45.319Z,14.00
2022-09-12T06:29:49.386Z,14.07
2022-09-12T06:32:52.029Z,14.20
2022-09-12T06:35:54.766Z,14.26
2022-09-12T06:38:59.432Z,14.30
2022-09-12T06:42:02.123Z,14.31
2022-09-12T06:45:07.422Z,14.35
2022-09-12T06:48:10.068Z,14.40
2022-09-12T06:51:15.285Z,14.41
2022-09-12T06:54:20.053Z,14.41
2022-09-12T06:57:25.075Z,14.44
2022-09-12T07:00:30.714Z,14.58
2022-09-12T07:03:34.413Z,14.74
2022-09-12T07:06:38.971Z,14.88
2022-09-12T07:09:41.666Z,14.85
2022-09-12T07:12:44.362Z,14.97
2022-09-12T07:15:49.200Z,14.98
2022-09-12T07:18:53.366Z,14.99
2022-09-12T07:21:58.666Z,15.00
2022-09-12T07:25:02.149Z,15.04
2022-09-12T07:28:05.154Z,15.00
2022-09-12T07:31:11.368Z,15.10
2022-09-12T07:34:14.491Z,15.15
2022-09-12T07:37:17.849Z,15.29
2022-09-12T07:40:20.681Z,15.41
2022-09-12T07:43:24.157Z,15.53
2022-09-12T07:46:30.191Z,15.65
2022-09-12T07:49:32.961Z,15.58
2022-09-12T07:52:35.792Z,15.79
2022-09-12T07:55:38.688Z,15.91
2022-09-12T07:58:43.239Z,15.91
2022-09-12T08:01:47.739Z,16.15
2022-09-12T08:04:51.403Z,16.36
2022-09-12T08:07:57.678Z,16.45
2022-09-12T08:11:01.213Z,16.82
2022-09-12T08:14:05.760Z,16.99
2022-09-12T08:17:10.367Z,17.09
2022-09-12T08:20:13.882Z,17.23
2022-09-12T08:23:18.199Z,17.30
2022-09-12T08:26:21.423Z,17.44
2022-09-12T08:29:26.797Z,17.70
2022-09-12T08:32:30.839Z,17.77
2022-09-12T08:35:33.535Z,17.83
2022-09-12T08:38:37.721Z,17.68
2022-09-12T08:41:42.385Z,17.62
2022-09-12T08:44:57.283Z,17.41
2022-09-12T08:48:04.982Z,17.53
2022-09-12T08:51:13.530Z,17.29
2022-09-12T08:54:22.594Z,17.27
2022-09-12T08:57:25.861Z,17.12
2022-09-12T09:00:40.448Z,17.14
2022-09-12T09:04:03.117Z,17.29
2022-09-12T09:07:46.342Z,17.56
2022-09-12T09:10:53.118Z,17.55
2022-09-12T09:14:23.401Z,17.59
2022-09-12T09:17:32.473Z,17.66
2022-09-12T09:20:44.028Z,17.74
2022-09-12T09:23:51.177Z,17.86
2022-09-12T09:26:59.343Z,17.92
2022-09-12T09:30:03.309Z,18.08
2022-09-12T09:33:12.574Z,18.19
2022-09-12T09:36:22.809Z,18.23
2022-09-12T09:39:38.300Z,18.34
2022-09-12T09:42:48.821Z,18.54
2022-09-12T09:45:53.367Z,18.60
2022-09-12T09:48:59.291Z,18.66
2022-09-12T09:52:06.498Z,18.61
2022-09-12T09:55:17.832Z,19.01
2022-09-12T09:58:30.303Z,19.24
2022-09-12T10:01:33.440Z,19.44
2022-09-12T10:04:41.568Z,19.61
2022-09-12T10:07:53.115Z,19.72
2022-09-12T10:11:02.869Z,19.72
2022-09-12T10:14:05.597Z,19.90
2022-09-12T10:17:33.760Z,20.08
2022-09-12T10:20:40.238Z,20.27
2022-09-12T10:23:45.218Z,20.39
2022-09-12T10:26:56.421Z,20.55
2022-09-12T10:30:04.161Z,20.73
2022-09-12T10:33:11.995Z,20.78
2022-09-12T10:36:15.978Z,20.70
2022-09-12T10:39:24.157Z,20.76
2022-09-12T10:42:46.152Z,20.90
2022-09-12T10:45:49.069Z,21.00
2022-09-12T10:48:54.822Z,21.09
2022-09-12T10:52:00.311Z,21.26
2022-09-12T10:55:04.523Z,21.59
2022-09-12T10:58:33.471Z,21.60
2022-09-12T11:01:42.850Z,21.77
2022-09-12T11:04:56.946Z,21.96
2022-09-12T11:08:07.712Z,22.07
2022-09-12T11:11:24.829Z,22.18
2022-09-12T11:14:40.325Z,22.38
2022-09-12T11:17:52.662Z,22.66
2022-09-12T11:21:11.110Z,22.72
2022-09-12T11:24:30.296Z,22.87
2022-09-12T11:27:47.753Z,22.92
2022-09-12T11:31:06.273Z,22.99
2022-09-12T11:34:10.640Z,22.95
2022-09-12T11:37:34.618Z,22.99
2022-09-12T11:40:44.936Z,23.08
2022-09-12T11:43:58.569Z,23.12
2022-09-12T11:47:06.583Z,23.33
2022-09-12T11:50:21.541Z,23.35
2022-09-12T11:53:30.753Z,23.47
2022-09-12T11:56:38.157Z,23.59
2022-09-12T11:59:47.563Z,23.80
2022-09-12T12:03:02.243Z,23.88
2022-09-12T12:06:12.843Z,23.95
2022-09-12T12:09:16.360Z,24.01
2022-09-12T12:12:24.882Z,24.08
2022-09-12T12:15:30.827Z,24.18
2022-09-12T12:18:37.962Z,24.00
2022-09-12T12:21:42.847Z,24.07
2022-09-12T12:25:06.413Z,23.91
2022-09-12T12:28:09.617Z,23.98
2022-09-12T12:31:14.139Z,24.05
2022-09-12T12:34:29.444Z,24.00
2022-09-12T12:37:53.878Z,23.88
2022-09-12T12:41:39.734Z,23.86
2022-09-12T12:44:51.431Z,23.84
2022-09-12T12:47:58.587Z,23.91
2022-09-12T12:51:31.570Z,24.00
2022-09-12T12:54:53.649Z,24.13
2022-09-12T12:57:59.287Z,24.01
2022-09-12T13:01:13.402Z,24.02
2022-09-12T13:04:21.022Z,24.14
2022-09-12T13:07:31.530Z,24.30
2022-09-12T13:10:35.378Z,24.42
2022-09-12T13:13:41.879Z,24.47
2022-09-12T13:16:55.638Z,24.55
2022-09-12T13:20:31.207Z,24.46
2022-09-12T13:23:35.155Z,24.24
2022-09-12T13:26:47.237Z,24.13
2022-09-12T13:29:50.337Z,24.16
2022-09-12T13:32:54.036Z,24.19
2022-09-12T13:36:18.979Z,24.18
2022-09-12T13:39:27.499Z,24.26
2022-09-12T13:42:40.959Z,24.24
2022-09-12T13:45:47.095Z,24.15
2022-09-12T13:48:50.029Z,24.13
2022-09-12T13:52:02.788Z,24.17
2022-09-12T13:55:09.565Z,24.26
2022-09-12T13:58:20.338Z,24.27
2022-09-12T14:01:24.631Z,24.40
2022-09-12T14:04:45.771Z,24.41
2022-09-12T14:07:56.429Z,24.38
2022-09-12T14:11:00.212Z,24.26
2022-09-12T14:14:07.462Z,24.13
2022-09-12T14:17:18.935Z,24.10
2022-09-12T14:20:32.062Z,24.03
2022-09-12T14:23:39.414Z,24.22
2022-09-12T14:26:45.026Z,24.29
2022-09-12T14:29:48.455Z,24.34
2022-09-12T14:33:05.582Z,24.42
2022-09-12T14:36:12.897Z,24.48
2022-09-12T14:39:29.532Z,24.51
2022-09-12T14:42:33.300Z,24.55
2022-09-12T14:45:36.011Z,24.59
2022-09-12T14:48:45.623Z,24.62
2022-09-12T14:51:56.678Z,24.68
2022-09-12T14:55:02.685Z,24.68
2022-09-12T14:58:16.381Z,24.67
2022-09-12T15:01:27.511Z,24.66
2022-09-12T15:04:40.595Z,24.60
2022-09-12T15:07:46.514Z,24.58
2022-09-12T15:10:51.138Z,24.54
2022-09-12T15:13:54.588Z,24.50
2022-09-12T15:16:57.407Z,24.53
2022-09-12T15:20:00.040Z,24.56
2022-09-12T15:23:03.253Z,24.59
2022-09-12T15:26:08.623Z,24.61
2022-09-12T15:29:11.315Z,24.60
2022-09-12T15:32:24.213Z,24.62
2022-09-12T15:35:29.423Z,24.64
2022-09-12T15:38:32.091Z,24.63
2022-09-12T15:41:37.931Z,24.61
2022-09-12T15:44:40.850Z,24.55
2022-09-12T15:47:43.692Z,24.58
2022-09-12T15:50:46.653Z,24.55
2022-09-12T15:53:51.381Z,24.49
2022-09-12T15:56:55.398Z,24.45
2022-09-12T15:59:58.053Z,24.40
2022-09-12T16:03:01.020Z,24.38
2022-09-12T16:06:04.846Z,24.34
2022-09-12T16:09:07.730Z,24.27
2022-09-12T16:12:11.864Z,24.18
2022-09-12T16:15:17.743Z,24.10
2022-09-12T16:18:20.423Z,24.04
2022-09-12T16:21:24.739Z,23.99
2022-09-12T16:24:28.501Z,23.93
2022-09-12T16:27:33.479Z,23.87
2022-09-12T16:30:36.629Z,23.85
2022-09-12T16:33:40.463Z,23.80
2022-09-12T16:36:45.182Z,23.70
2022-09-12T16:39:49.002Z,23.60
2022-09-12T16:42:53.139Z,23.48
2022-09-12T16:46:03.180Z,23.25
2022-09-12T16:49:07.609Z,23.02
2022-09-12T16:52:11.438Z,22.74
2022-09-12T16:55:14.730Z,22.43
2022-09-12T16:58:18.846Z,22.21
2022-09-12T17:01:23.880Z,22.04
2022-09-12T17:04:26.890Z,21.85
2022-09-12T17:07:29.600Z,21.73
2022-09-12T17:10:32.959Z,21.58
2022-09-12T17:14:02.653Z,21.47
2022-09-12T17:16:59.728Z,21.35
2022-09-12T17:20:02.915Z,21.22
2022-09-12T17:23:09.631Z,21.14
2022-09-12T17:26:13.638Z,21.05
2022-09-12T17:29:18.341Z,20.92
2022-09-12T17:32:21.144Z,20.81
2022-09-12T17:35:23.895Z,20.66
2022-09-12T17:38:27.721Z,20.55
2022-09-12T17:41:32.972Z,20.47
2022-09-12T17:44:37.094Z,20.34
2022-09-12T17:47:39.897Z,20.27
2022-09-12T17:50:43.445Z,20.13
2022-09-12T17:53:46.286Z,20.02
2022-09-12T17:56:51.261Z,19.93
2022-09-12T17:59:55.363Z,19.86
2022-09-12T18:02:58.074Z,19.73
2022-09-12T18:06:00.976Z,19.67
2022-09-12T18:09:06.083Z,19.61
2022-09-12T18:12:09.299Z,19.55
2022-09-12T18:15:14.267Z,19.38
2022-09-12T18:18:16.989Z,19.35
2022-09-12T18:21:20.588Z,19.27
2022-09-12T18:24:23.778Z,19.15
2022-09-12T18:27:26.851Z,19.11
2022-09-12T18:30:32.818Z,19.05
2022-09-12T18:33:35.479Z,19.00
2022-09-12T18:36:38.195Z,18.94
2022-09-12T18:39:40.943Z,18.89
2022-09-12T18:42:43.787Z,18.86
2022-09-12T18:45:48.138Z,18.80
2022-09-12T18:48:51.306Z,18.73
2022-09-12T18:51:54.371Z,18.72
2022-09-12T18:54:57.260Z,18.60
2022-09-12T18:58:00.568Z,18.59
2022-09-12T19:01:12.351Z,18.51
2022-09-12T19:04:18.088Z,18.46
2022-09-12T19:07:22.796Z,18.40
2022-09-12T19:10:27.121Z,18.33
2022-09-12T19:13:30.548Z,18.29
2022-09-12T19:16:36.441Z,18.25
2022-09-12T19:19:40.697Z,18.21
2022-09-12T19:22:43.891Z,18.15
2022-09-12T19:25:56.666Z,18.07
2022-09-12T19:29:00.971Z,18.07
2022-09-12T19:32:05.889Z,18.04
2022-09-12T19:35:12.937Z,17.97
2022-09-12T19:38:15.949Z,17.92
2022-09-12T19:41:20.379Z,17.83
2022-09-12T19:44:23.756Z,17.77
2022-09-12T19:47:27.875Z,17.72
2022-09-12T19:50:33.236Z,17.65
2022-09-12T19:53:37.502Z,17.59
2022-09-12T19:56:40.463Z,17.49
2022-09-12T19:59:43.150Z,17.45
2022-09-12T20:02:52.539Z,17.39
2022-09-12T20:05:55.219Z,17.37
2022-09-12T20:08:59.367Z,17.29
2022-09-12T20:12:02.554Z,17.30
2022-09-12T20:15:08.350Z,17.24
2022-09-12T20:18:12.524Z,17.20
2022-09-12T20:21:17.828Z,17.14
2022-09-12T20:24:20.728Z,17.08
2022-09-12T20:27:23.784Z,17.04
2022-09-12T20:30:26.675Z,17.01
2022-09-12T20:33:32.007Z,16.97
2022-09-12T20:36:35.485Z,16.90
2022-09-12T20:39:38.220Z,16.83
2022-09-12T20:42:40.943Z,16.77
2022-09-12T20:45:43.815Z,16.75
2022-09-12T20:48:47.985Z,16.67
2022-09-12T20:51:51.158Z,16.63
2022-09-12T20:54:53.866Z,16.57
2022-09-12T20:57:56.843Z,16.51
2022-09-12T21:01:00.022Z,16.46
2022-09-12T21:04:10.771Z,16.42
2022-09-12T21:07:17.066Z,16.38
2022-09-12T21:10:19.952Z,16.34
2022-09-12T21:13:23.056Z,16.26
2022-09-12T21:16:26.336Z,16.19
2022-09-12T21:19:30.703Z,16.15
2022-09-12T21:22:36.934Z,16.09
2022-09-12T21:25:39.750Z,16.06
2022-09-12T21:28:42.552Z,16.02
2022-09-12T21:31:45.366Z,15.97
2022-09-12T21:34:49.523Z,15.95
2022-09-12T21:37:52.906Z,15.81
2022-09-12T21:41:04.306Z,15.79
2022-09-12T21:44:07.463Z,15.83
2022-09-12T21:47:10.206Z,15.82
2022-09-12T21:50:14.723Z,15.83
2022-09-12T21:53:17.536Z,15.75
2022-09-12T21:56:20.918Z,15.71
2022-09-12T21:59:23.631Z,15.68
2022-09-12T22:02:27.260Z,15.62
2022-09-12T22:05:32.719Z,15.61
2022-09-12T22:08:37.251Z,15.60
2022-09-12T22:11:39.969Z,15.58
2022-09-12T22:14:42.686Z,15.54
2022-09-12T22:17:45.349Z,15.52
2022-09-12T22:20:49.437Z,15.53
2022-09-12T22:24:09.981Z,15.49
2022-09-12T22:27:12.759Z,15.45
2022-09-12T22:30:15.452Z,15.43
2022-09-12T22:33:18.383Z,15.39
2022-09-12T22:36:22.844Z,15.33
2022-09-12T22:39:25.536Z,15.29
2022-09-12T22:42:30.071Z,15.27
2022-09-12T22:45:32.739Z,15.23
2022-09-12T22:48:35.615Z,15.20
2022-09-12T22:51:39.984Z,15.15
2022-09-12T22:54:42.774Z,15.12
2022-09-12T22:57:45.466Z,15.10
2022-09-12T23:00:50.117Z,15.05
2022-09-12T23:03:52.941Z,15.02
2022-09-12T23:06:57.536Z,14.82
2022-09-12T23:10:00.619Z,15.01
2022-09-12T23:13:03.541Z,14.99
2022-09-12T23:16:09.067Z,14.97
2022-09-12T23:19:12.143Z,14.95
2022-09-12T23:22:16.158Z,14.89
2022-09-12T23:25:22.899Z,14.92
2022-09-12T23:28:25.565Z,14.85
2022-09-12T23:31:31.215Z,14.86
2022-09-12T23:34:34.105Z,14.91
2022-09-12T23:37:38.483Z,14.94
2022-09-12T23:40:41.224Z,14.97
2022-09-12T23:43:45.508Z,14.94
2022-09-12T23:46:48.447Z,14.94
2022-09-12T23:49:51.163Z,14.93
2022-09-12T23:52:55.447Z,14.95
2022-09-12T23:55:58.628Z,14.95
2022-09-12T23:59:01.479Z,14.90
